createdAt,value
2022-12-07T00:01:45.198Z,66.88
2022-12-07T00:04:17.472Z,66.91
2022-12-07T00:06:47.898Z,66.79
2022-12-07T00:09:18.615Z,66.17
2022-12-07T00:11:52.321Z,66.73
2022-12-07T00:14:21.729Z,66.34
2022-12-07T00:16:51.976Z,66.62
2022-12-07T00:19:20.837Z,66.36
2022-12-07T00:21:48.910Z,66.57
2022-12-07T00:24:17.152Z,66.48
2022-12-07T00:26:46.710Z,66.21
2022-12-07T00:29:18.995Z,65.73
2022-12-07T00:31:47.497Z,65.72
2022-12-07T00:34:18.584Z,66.15
2022-12-07T00:36:46.722Z,65.91
2022-12-07T00:39:14.905Z,65.75
2022-12-07T00:41:43.276Z,66.15
2022-12-07T00:44:12.793Z,65.44
2022-12-07T00:46:40.959Z,65.67
2022-12-07T00:49:09.088Z,65.29
2022-12-07T00:51:37.945Z,65.21
2022-12-07T00:54:06.156Z,65.33
2022-12-07T00:56:34.302Z,65.17
2022-12-07T00:59:04.288Z,65.36
2022-12-07T01:01:36.010Z,65.28
2022-12-07T01:04:04.978Z,65.35
2022-12-07T01:06:33.984Z,64.99
2022-12-07T01:09:02.642Z,65.04
2022-12-07T01:11:32.508Z,64.91
2022-12-07T01:14:02.213Z,65.85
2022-12-07T01:16:33.989Z,64.92
2022-12-07T01:19:05.443Z,65.21
2022-12-07T01:21:38.304Z,64.58
2022-12-07T01:24:11.055Z,65.45
2022-12-07T01:26:39.541Z,65.09
2022-12-07T01:29:07.625Z,65.27
2022-12-07T01:31:37.095Z,65.40
2022-12-07T01:34:05.226Z,65.68
2022-12-07T01:36:35.978Z,65.54
2022-12-07T01:39:07.148Z,65.90
2022-12-07T01:41:40.044Z,66.05
2022-12-07T01:44:24.881Z,66.03
2022-12-07T01:46:56.719Z,65.83
2022-12-07T01:49:32.953Z,65.66
2022-12-07T01:52:13.956Z,65.84
2022-12-07T01:54:42.821Z,65.29
2022-12-07T01:57:12.080Z,66.06
2022-12-07T01:59:40.449Z,65.69
2022-12-07T02:02:25.174Z,65.15
2022-12-07T02:04:56.106Z,65.79
2022-12-07T02:07:25.974Z,65.31
2022-12-07T02:09:54.045Z,65.82
2022-12-07T02:12:24.335Z,65.29
2022-12-07T02:14:53.583Z,65.89
2022-12-07T02:17:30.675Z,65.59
2022-12-07T02:20:25.305Z,66.22
2022-12-07T02:23:27.743Z,65.73
2022-12-07T02:26:45.232Z,65.59
2022-12-07T02:29:24.007Z,65.90
2022-12-07T02:32:07.700Z,65.80
2022-12-07T02:34:46.092Z,65.62
2022-12-07T02:37:27.753Z,65.33
2022-12-07T02:40:01.608Z,65.91
2022-12-07T02:42:38.502Z,66.12
2022-12-07T02:45:11.642Z,66.10
2022-12-07T02:47:41.640Z,66.37
2022-12-07T02:50:11.166Z,66.42
2022-12-07T02:52:39.205Z,65.50
2022-12-07T02:55:09.274Z,66.24
2022-12-07T02:58:01.576Z,65.50
2022-12-07T03:00:37.309Z,65.95
2022-12-07T03:03:11.207Z,65.55
2022-12-07T03:06:08.742Z,65.47
2022-12-07T03:08:48.955Z,65.52
2022-12-07T03:11:24.989Z,65.79
2022-12-07T03:14:00.918Z,65.55
2022-12-07T03:16:36.352Z,65.19
2022-12-07T03:19:09.756Z,65.89
2022-12-07T03:21:42.386Z,65.40
2022-12-07T03:24:15.441Z,66.15
2022-12-07T03:26:49.833Z,66.22
2022-12-07T03:29:24.659Z,66.14
2022-12-07T03:32:04.145Z,65.68
2022-12-07T03:34:38.381Z,65.91
2022-12-07T03:37:10.527Z,65.75
2022-12-07T03:39:43.900Z,65.70
2022-12-07T03:42:13.029Z,65.62
2022-12-07T03:44:42.267Z,65.27
2022-12-07T03:47:18.288Z,65.77
2022-12-07T03:49:53.631Z,65.93
2022-12-07T03:52:28.414Z,65.71
2022-12-07T03:55:02.289Z,65.47
2022-12-07T03:57:32.409Z,65.57
2022-12-07T04:00:01.582Z,66.17
2022-12-07T04:02:42.937Z,66.26
2022-12-07T04:05:12.005Z,65.70
2022-12-07T04:07:40.217Z,65.88
2022-12-07T04:10:09.722Z,65.20
2022-12-07T04:12:37.888Z,65.31
2022-12-07T04:15:07.614Z,65.03
2022-12-07T04:17:35.727Z,65.43
2022-12-07T04:20:06.125Z,65.32
2022-12-07T04:22:34.242Z,65.41
2022-12-07T04:25:02.399Z,64.88
2022-12-07T04:27:30.489Z,65.11
2022-12-07T04:29:58.832Z,64.96
2022-12-07T04:32:26.999Z,65.36
2022-12-07T04:34:56.012Z,65.78
2022-12-07T04:37:26.152Z,65.37
2022-12-07T04:39:54.361Z,64.72
2022-12-07T04:42:22.420Z,65.01
2022-12-07T04:44:50.487Z,65.12
2022-12-07T04:47:18.632Z,64.37
2022-12-07T04:49:46.727Z,64.57
2022-12-07T04:52:14.861Z,63.34
2022-12-07T04:54:44.298Z,64.14
2022-12-07T04:57:12.419Z,64.10
2022-12-07T04:59:45.364Z,63.56
2022-12-07T05:02:14.049Z,63.82
2022-12-07T05:04:42.211Z,63.52
2022-12-07T05:07:10.281Z,63.55
2022-12-07T05:09:38.384Z,63.54
2022-12-07T05:12:07.908Z,63.38
2022-12-07T05:14:36.056Z,63.08
2022-12-07T05:17:05.071Z,63.28
2022-12-07T05:19:33.190Z,62.87
2022-12-07T05:22:01.255Z,63.35
2022-12-07T05:24:29.410Z,62.98
2022-12-07T05:26:57.468Z,62.97
2022-12-07T05:29:27.029Z,62.55
2022-12-07T05:31:55.184Z,62.81
2022-12-07T05:34:23.464Z,62.33
2022-12-07T05:36:51.658Z,62.80
2022-12-07T05:39:19.742Z,63.02
2022-12-07T05:42:05.573Z,61.59
2022-12-07T05:44:35.032Z,62.14
2022-12-07T05:47:03.137Z,62.35
2022-12-07T05:49:31.233Z,62.50
2022-12-07T05:51:59.759Z,62.39
2022-12-07T05:54:28.036Z,62.71
2022-12-07T05:56:56.550Z,62.52
2022-12-07T05:59:23.870Z,62.06
2022-12-07T06:01:55.795Z,63.09
2022-12-07T06:04:26.613Z,62.40
2022-12-07T06:06:54.766Z,61.59
2022-12-07T06:09:25.144Z,61.80
2022-12-07T06:12:11.303Z,62.64
2022-12-07T06:14:40.235Z,63.30
2022-12-07T06:17:09.822Z,61.78
2022-12-07T06:19:38.052Z,60.76
2022-12-07T06:22:06.810Z,59.16
2022-12-07T06:24:35.623Z,57.54
2022-12-07T06:27:04.477Z,56.88
2022-12-07T06:29:32.997Z,56.83
2022-12-07T06:32:01.229Z,56.17
2022-12-07T06:34:30.784Z,56.04
2022-12-07T06:36:58.962Z,55.65
2022-12-07T06:39:29.962Z,54.98
2022-12-07T06:41:59.199Z,54.85
2022-12-07T06:44:27.782Z,54.79
2022-12-07T06:47:24.636Z,54.35
2022-12-07T06:49:46.853Z,54.64
2022-12-07T06:52:18.263Z,54.37
2022-12-07T06:54:46.390Z,53.84
2022-12-07T06:57:14.486Z,53.76
2022-12-07T06:59:42.546Z,53.21
2022-12-07T07:02:11.824Z,53.26
2022-12-07T07:04:39.930Z,53.40
2022-12-07T07:07:09.317Z,53.37
2022-12-07T07:09:37.613Z,53.25
2022-12-07T07:12:06.060Z,52.94
2022-12-07T07:14:34.257Z,53.24
2022-12-07T07:17:02.404Z,53.22
2022-12-07T07:19:30.528Z,53.08
2022-12-07T07:21:58.619Z,52.77
2022-12-07T07:24:28.046Z,53.56
2022-12-07T07:26:56.129Z,53.22
2022-12-07T07:29:24.341Z,53.23
2022-12-07T07:31:52.436Z,53.34
2022-12-07T07:34:20.740Z,53.86
2022-12-07T07:36:48.885Z,54.68
2022-12-07T07:39:17.172Z,55.60
2022-12-07T07:41:46.575Z,55.92
2022-12-07T07:44:21.262Z,56.13
2022-12-07T07:46:49.374Z,56.77
2022-12-07T07:49:17.456Z,56.97
2022-12-07T07:51:45.526Z,57.93
2022-12-07T07:54:13.594Z,58.25
2022-12-07T07:56:41.818Z,57.83
2022-12-07T07:59:11.371Z,58.31
2022-12-07T08:01:39.446Z,58.28
2022-12-07T08:04:07.550Z,57.47
2022-12-07T08:06:35.832Z,58.55
2022-12-07T08:09:06.645Z,57.78
2022-12-07T08:11:34.711Z,58.28
2022-12-07T08:14:02.921Z,58.25
2022-12-07T08:16:32.456Z,58.93
2022-12-07T08:19:00.544Z,57.83
2022-12-07T08:21:28.696Z,58.92
2022-12-07T08:23:56.775Z,58.83
2022-12-07T08:26:24.880Z,58.59
2022-12-07T08:28:54.428Z,58.66
2022-12-07T08:31:22.637Z,58.65
2022-12-07T08:33:52.213Z,58.86
2022-12-07T08:36:20.618Z,58.93
2022-12-07T08:39:14.966Z,58.25
2022-12-07T08:41:36.949Z,58.20
2022-12-07T08:44:05.703Z,58.37
2022-12-07T08:46:38.758Z,57.83
2022-12-07T08:49:13.595Z,58.07
2022-12-07T08:51:42.678Z,57.75
2022-12-07T08:54:16.413Z,58.33
2022-12-07T08:56:45.271Z,58.33
2022-12-07T08:59:16.048Z,58.28
2022-12-07T09:01:44.316Z,57.93
2022-12-07T09:04:13.705Z,57.96
2022-12-07T09:06:42.696Z,58.49
2022-12-07T09:09:12.227Z,58.61
2022-12-07T09:11:40.687Z,58.12
2022-12-07T09:14:08.927Z,59.04
2022-12-07T09:16:37.127Z,57.87
2022-12-07T09:19:05.785Z,58.22
2022-12-07T09:21:35.171Z,58.42
2022-12-07T09:24:03.162Z,58.53
2022-12-07T09:26:31.329Z,59.33
2022-12-07T09:28:59.458Z,58.56
2022-12-07T09:31:28.202Z,58.93
2022-12-07T09:33:57.590Z,58.79
2022-12-07T09:36:26.107Z,58.82
2022-12-07T09:38:55.597Z,58.96
2022-12-07T09:41:25.674Z,58.19
2022-12-07T09:43:55.102Z,58.64
2022-12-07T09:46:23.527Z,58.46
2022-12-07T09:48:52.882Z,59.09
2022-12-07T09:51:24.876Z,59.59
2022-12-07T09:53:57.116Z,59.44
2022-12-07T09:56:25.819Z,59.45
2022-12-07T09:59:01.412Z,59.35
2022-12-07T10:01:33.270Z,59.34
2022-12-07T10:04:14.697Z,58.77
2022-12-07T10:06:44.679Z,58.91
2022-12-07T10:09:17.451Z,59.60
2022-12-07T10:12:07.255Z,59.07
2022-12-07T10:15:09.621Z,59.12
2022-12-07T10:17:39.711Z,59.39
2022-12-07T10:20:19.447Z,59.13
2022-12-07T10:23:02.351Z,58.69
2022-12-07T10:25:34.752Z,58.98
2022-12-07T10:28:16.428Z,59.43
2022-12-07T10:30:57.677Z,59.82
2022-12-07T10:33:36.538Z,60.01
2022-12-07T10:36:22.112Z,59.77
2022-12-07T10:38:54.242Z,59.16
2022-12-07T10:41:23.714Z,59.59
2022-12-07T10:43:55.717Z,59.53
2022-12-07T10:46:55.905Z,59.66
2022-12-07T10:50:20.103Z,60.07
2022-12-07T10:53:24.847Z,59.95
2022-12-07T10:56:10.071Z,60.08
2022-12-07T10:58:55.650Z,59.99
2022-12-07T11:01:31.198Z,59.76
2022-12-07T11:04:26.819Z,59.63
2022-12-07T11:07:02.647Z,59.37
2022-12-07T11:10:10.529Z,59.41
2022-12-07T11:13:17.811Z,60.79
2022-12-07T11:16:05.868Z,60.45
2022-12-07T11:18:48.597Z,60.82
2022-12-07T11:21:26.166Z,60.84
2022-12-07T11:24:03.939Z,61.26
2022-12-07T11:26:49.980Z,61.50
2022-12-07T11:29:45.000Z,61.38
2022-12-07T11:32:23.612Z,61.62
2022-12-07T11:35:05.948Z,61.56
2022-12-07T11:40:21.302Z,60.76
2022-12-07T11:42:57.961Z,61.24
2022-12-07T11:45:29.570Z,61.16
2022-12-07T11:48:03.406Z,61.32
2022-12-07T11:50:41.231Z,61.15
2022-12-07T11:53:19.031Z,61.63
2022-12-07T11:55:54.632Z,61.58
2022-12-07T11:58:50.645Z,62.06
2022-12-07T12:01:41.340Z,61.35
2022-12-07T12:04:29.608Z,61.96
2022-12-07T12:06:57.971Z,61.41
2022-12-07T12:09:39.763Z,61.55
2022-12-07T12:15:37.906Z,61.41
2022-12-07T12:18:43.072Z,61.37
2022-12-07T12:21:19.668Z,61.29
2022-12-07T12:23:57.109Z,61.57
2022-12-07T12:26:28.412Z,60.89
2022-12-07T12:29:00.852Z,60.99
2022-12-07T12:31:38.090Z,60.71
2022-12-07T12:34:32.519Z,61.04
2022-12-07T12:37:02.235Z,61.10
2022-12-07T12:39:30.616Z,60.74
2022-12-07T12:42:08.434Z,60.80
2022-12-07T12:45:20.627Z,61.04
2022-12-07T12:48:00.513Z,60.90
2022-12-07T12:50:32.838Z,60.79
2022-12-07T12:53:14.899Z,60.55
2022-12-07T12:56:30.090Z,60.92
2022-12-07T12:59:26.007Z,60.68
2022-12-07T13:01:58.335Z,60.42
2022-12-07T13:04:54.691Z,60.50
2022-12-07T13:08:03.524Z,60.28
2022-12-07T13:10:45.882Z,59.94
2022-12-07T13:13:37.354Z,60.30
2022-12-07T13:16:41.704Z,60.39
2022-12-07T13:20:02.490Z,60.50
2022-12-07T13:22:50.403Z,60.39
2022-12-07T13:25:39.863Z,60.36
2022-12-07T13:28:18.472Z,60.71
2022-12-07T13:31:11.004Z,61.17
2022-12-07T13:33:39.695Z,61.32
2022-12-07T13:36:23.889Z,61.37
2022-12-07T13:38:56.336Z,61.52
2022-12-07T13:41:27.526Z,60.88
2022-12-07T13:44:04.112Z,60.88
2022-12-07T13:46:51.119Z,60.77
2022-12-07T13:49:23.810Z,61.08
2022-12-07T13:51:53.455Z,61.59
2022-12-07T13:54:22.636Z,61.37
2022-12-07T13:56:54.609Z,60.53
2022-12-07T13:59:25.797Z,60.99
2022-12-07T14:01:55.492Z,60.93
2022-12-07T14:04:36.399Z,60.48
2022-12-07T14:07:24.361Z,61.07
2022-12-07T14:10:01.976Z,61.32
2022-12-07T14:12:34.206Z,61.34
2022-12-07T14:15:04.968Z,61.25
2022-12-07T14:17:33.504Z,61.30
2022-12-07T14:20:02.793Z,61.10
2022-12-07T14:22:35.804Z,61.08
2022-12-07T14:25:21.388Z,60.75
2022-12-07T14:27:56.851Z,60.97
2022-12-07T14:30:27.979Z,60.89
2022-12-07T14:33:01.039Z,60.74
2022-12-07T14:35:30.108Z,60.25
2022-12-07T14:37:58.301Z,60.32
2022-12-07T14:40:29.466Z,60.83
2022-12-07T14:43:03.133Z,60.12
2022-12-07T14:45:32.018Z,60.44
2022-12-07T14:53:44.941Z,60.61
2022-12-07T14:56:13.585Z,60.81
2022-12-07T14:58:43.475Z,60.78
2022-12-07T15:01:11.605Z,60.82
2022-12-07T15:03:39.980Z,61.00
2022-12-07T15:06:09.140Z,61.09
2022-12-07T15:08:37.200Z,60.97
2022-12-07T15:11:05.569Z,60.45
2022-12-07T15:13:51.273Z,60.88
2022-12-07T15:16:22.891Z,60.71
2022-12-07T15:19:19.281Z,61.04
2022-12-07T15:21:41.318Z,61.69
2022-12-07T15:24:12.369Z,61.49
2022-12-07T15:26:42.239Z,61.52
2022-12-07T15:29:12.321Z,62.25
2022-12-07T15:31:55.981Z,61.84
2022-12-07T15:34:27.451Z,62.20
2022-12-07T15:36:55.728Z,62.05
2022-12-07T15:39:23.858Z,61.91
2022-12-07T15:41:51.992Z,60.79
2022-12-07T15:44:37.883Z,61.00
2022-12-07T15:47:08.118Z,61.40
2022-12-07T15:49:36.229Z,61.31
2022-12-07T15:52:04.380Z,61.03
2022-12-07T15:54:33.202Z,61.59
2022-12-07T15:57:01.897Z,61.64
2022-12-07T15:59:30.973Z,61.28
2022-12-07T16:02:00.081Z,61.95
2022-12-07T16:04:31.242Z,61.48
2022-12-07T16:06:59.809Z,62.14
2022-12-07T16:09:27.947Z,61.74
2022-12-07T16:11:56.235Z,61.61
2022-12-07T16:14:24.393Z,62.07
2022-12-07T16:16:52.471Z,61.61
2022-12-07T16:19:20.550Z,61.80
2022-12-07T16:21:49.992Z,61.49
2022-12-07T16:24:18.361Z,60.95
2022-12-07T16:26:50.163Z,61.25
2022-12-07T16:29:20.683Z,61.56
2022-12-07T16:31:49.149Z,61.96
2022-12-07T16:34:17.651Z,61.79
2022-12-07T16:39:36.347Z,62.30
2022-12-07T16:42:06.843Z,62.39
2022-12-07T16:44:34.935Z,62.13
2022-12-07T16:47:03.049Z,61.72
2022-12-07T16:49:31.511Z,62.14
2022-12-07T16:54:49.769Z,62.17
2022-12-07T16:57:22.945Z,62.09
2022-12-07T16:59:52.202Z,61.74
2022-12-07T17:02:21.237Z,61.93
2022-12-07T17:04:49.492Z,61.80
2022-12-07T17:07:17.578Z,61.99
2022-12-07T17:09:46.039Z,62.14
2022-12-07T17:12:15.479Z,62.05
2022-12-07T17:15:01.575Z,62.11
2022-12-07T17:17:30.029Z,62.29
2022-12-07T17:19:58.281Z,62.36
2022-12-07T17:22:26.368Z,61.98
2022-12-07T17:24:54.465Z,62.36
2022-12-07T17:27:24.027Z,62.78
2022-12-07T17:29:52.098Z,62.58
2022-12-07T17:32:20.250Z,63.18
2022-12-07T17:34:48.373Z,62.71
2022-12-07T17:37:16.483Z,62.95
2022-12-07T17:39:44.662Z,62.69
2022-12-07T17:42:30.214Z,62.91
2022-12-07T17:44:59.829Z,62.91
2022-12-07T17:47:27.993Z,62.66
2022-12-07T17:49:56.064Z,62.10
2022-12-07T17:52:42.099Z,62.71
2022-12-07T17:55:10.609Z,62.41
2022-12-07T17:57:38.796Z,62.02
2022-12-07T18:00:11.512Z,62.57
2022-12-07T18:02:42.554Z,63.39
2022-12-07T18:05:11.256Z,62.20
2022-12-07T18:07:39.406Z,62.22
2022-12-07T18:10:09.313Z,63.08
2022-12-07T18:12:37.476Z,62.05
2022-12-07T18:15:08.222Z,62.79
2022-12-07T18:17:36.375Z,62.27
2022-12-07T18:20:05.598Z,62.44
2022-12-07T18:22:33.799Z,61.95
2022-12-07T18:25:02.122Z,62.45
2022-12-07T18:27:30.356Z,62.22
2022-12-07T18:29:59.622Z,61.62
2022-12-07T18:32:30.894Z,62.25
2022-12-07T18:34:59.047Z,62.02
2022-12-07T18:37:27.509Z,62.52
2022-12-07T18:39:57.008Z,61.72
2022-12-07T18:42:25.142Z,62.67
2022-12-07T18:44:59.304Z,62.02
2022-12-07T18:47:32.364Z,62.35
2022-12-07T18:50:00.451Z,61.57
2022-12-07T18:52:31.308Z,62.70
2022-12-07T18:55:01.674Z,61.69
2022-12-07T18:57:32.846Z,61.93
2022-12-07T19:00:01.057Z,62.74
2022-12-07T19:02:29.204Z,62.50
2022-12-07T19:04:58.648Z,62.54
2022-12-07T19:07:26.778Z,62.92
2022-12-07T19:09:54.816Z,62.39
2022-12-07T19:12:22.917Z,63.06
2022-12-07T19:14:51.211Z,63.34
2022-12-07T19:17:19.395Z,62.84
2022-12-07T19:19:48.829Z,62.77
2022-12-07T19:22:21.576Z,63.34
2022-12-07T19:24:52.669Z,62.68
2022-12-07T19:27:22.077Z,62.73
2022-12-07T19:29:51.022Z,62.60
2022-12-07T19:32:19.391Z,62.78
2022-12-07T19:34:48.949Z,62.51
2022-12-07T19:37:19.268Z,61.97
2022-12-07T19:39:48.298Z,62.50
2022-12-07T19:42:16.421Z,61.96
2022-12-07T19:44:44.779Z,61.85
2022-12-07T19:47:17.356Z,61.27
2022-12-07T19:49:46.744Z,62.48
2022-12-07T19:52:15.416Z,61.57
2022-12-07T19:54:44.866Z,61.46
2022-12-07T19:57:16.009Z,62.52
2022-12-07T19:59:46.222Z,61.57
2022-12-07T20:02:16.776Z,61.42
2022-12-07T20:04:45.075Z,62.11
2022-12-07T20:07:13.123Z,62.11
2022-12-07T20:09:41.486Z,61.03
2022-12-07T20:12:29.745Z,61.42
2022-12-07T20:14:59.233Z,61.45
2022-12-07T20:17:27.433Z,62.00
2022-12-07T20:19:55.576Z,61.86
2022-12-07T20:22:23.631Z,61.60
2022-12-07T20:24:51.709Z,61.51
2022-12-07T20:27:21.132Z,62.59
2022-12-07T20:29:50.673Z,61.67
2022-12-07T20:32:18.809Z,61.18
2022-12-07T20:34:46.859Z,61.80
2022-12-07T20:37:14.965Z,62.13
2022-12-07T20:39:43.025Z,61.91
2022-12-07T20:42:30.012Z,61.73
2022-12-07T20:45:03.061Z,61.39
2022-12-07T20:47:33.095Z,60.88
2022-12-07T20:50:01.261Z,62.46
2022-12-07T20:52:30.699Z,61.88
2022-12-07T20:54:58.852Z,61.46
2022-12-07T20:57:26.974Z,61.83
2022-12-07T20:59:55.119Z,61.84
2022-12-07T21:02:25.877Z,62.28
2022-12-07T21:04:54.104Z,61.98
2022-12-07T21:07:22.227Z,61.89
2022-12-07T21:09:51.189Z,61.42
2022-12-07T21:12:19.418Z,61.98
2022-12-07T21:14:47.566Z,61.87
2022-12-07T21:17:15.700Z,61.66
2022-12-07T21:19:45.133Z,61.32
2022-12-07T21:22:13.274Z,61.11
2022-12-07T21:24:41.754Z,60.81
2022-12-07T21:27:10.109Z,61.70
2022-12-07T21:29:44.249Z,61.22
2022-12-07T21:32:14.639Z,61.77
2022-12-07T21:34:44.177Z,62.17
2022-12-07T21:37:12.301Z,61.85
2022-12-07T21:39:40.386Z,61.75
2022-12-07T21:42:08.501Z,61.17
2022-12-07T21:44:36.910Z,61.50
2022-12-07T21:47:05.635Z,61.94
2022-12-07T21:49:35.618Z,61.47
2022-12-07T21:52:05.596Z,61.74
2022-12-07T21:54:34.420Z,61.45
2022-12-07T21:57:02.569Z,61.63
2022-12-07T21:59:30.804Z,62.24
2022-12-07T22:01:58.979Z,61.17
2022-12-07T22:04:28.566Z,61.10
2022-12-07T22:06:59.018Z,61.48
2022-12-07T22:09:30.296Z,61.12
2022-12-07T22:11:58.617Z,61.16
2022-12-07T22:14:44.125Z,61.57
2022-12-07T22:17:12.212Z,61.97
2022-12-07T22:19:40.262Z,62.21
2022-12-07T22:22:08.340Z,61.74
2022-12-07T22:24:37.826Z,61.37
2022-12-07T22:27:05.872Z,61.94
2022-12-07T22:29:34.009Z,61.62
2022-12-07T22:32:18.604Z,62.19
2022-12-07T22:34:50.228Z,61.57
2022-12-07T22:37:18.358Z,60.90
2022-12-07T22:39:47.865Z,62.12
2022-12-07T22:42:15.947Z,62.23
2022-12-07T22:44:44.488Z,61.77
2022-12-07T22:47:14.864Z,61.60
2022-12-07T22:49:43.445Z,61.84
2022-12-07T22:52:11.682Z,61.87
2022-12-07T22:54:40.008Z,61.50
2022-12-07T22:57:09.504Z,62.52
2022-12-07T22:59:37.612Z,61.69
2022-12-07T23:02:05.677Z,62.15
2022-12-07T23:04:34.092Z,61.77
2022-12-07T23:07:02.221Z,61.52
2022-12-07T23:09:30.272Z,61.42
2022-12-07T23:12:15.877Z,61.82
2022-12-07T23:14:45.301Z,61.68
2022-12-07T23:17:13.334Z,61.80
2022-12-07T23:19:41.563Z,61.61
2022-12-07T23:22:09.609Z,62.02
2022-12-07T23:24:37.675Z,62.08
2022-12-07T23:27:05.875Z,61.07
2022-12-07T23:29:33.977Z,61.41
2022-12-07T23:32:03.509Z,62.12
2022-12-07T23:34:31.682Z,61.32
2022-12-07T23:36:59.777Z,61.81
2022-12-07T23:39:27.949Z,62.29
2022-12-07T23:41:56.056Z,61.17
2022-12-07T23:44:26.109Z,61.25
2022-12-07T23:46:55.354Z,62.36
2022-12-07T23:49:24.845Z,61.67
2022-12-07T23:51:53.073Z,61.37
2022-12-07T23:54:21.188Z,61.11
2022-12-07T23:56:49.289Z,61.71
2022-12-07T23:59:17.398Z,62.22
